Time;durP1;ratioP1;P1;durP2;ratioP2;P2;SDS_P1;SDS_P2;PMS_P1;PMS_P2;Temp;Humidity;BMP_temperature;BMP_pressure;BME280_temperature;BME280_humidity;BME280_pressure;Samples;Min_cycle;Max_cycle;Signal;HPM_P1;HPM_P2
2021/12/31 00:00:40;;;;;;;6.95;4.97;;;;;;;11.44;84.18;100198.63;2039124;86;29488;-62
2021/12/31 00:03:44;;;;;;;7.67;4.35;;;;;;;11.44;84.13;100196.41;2043358;86;28214;-61
2021/12/31 00:06:45;;;;;;;7.45;4.33;;;;;;;11.44;84.19;100206.68;2038164;86;29297;-60
2021/12/31 00:09:47;;;;;;;6.10;4.28;;;;;;;11.46;84.23;100211.48;2041667;86;30800;-63
2021/12/31 00:12:49;;;;;;;10.15;4.65;;;;;;;11.47;84.13;100210.54;2036646;86;33049;-62
2021/12/31 00:15:51;;;;;;;5.65;3.95;;;;;;;11.47;84.02;100217.25;2037819;86;30546;-63
2021/12/31 00:18:53;;;;;;;7.22;3.83;;;;;;;11.47;84.05;100215.91;2035929;86;27702;-64
2021/12/31 00:21:56;;;;;;;4.70;3.65;;;;;;;11.48;84.10;100212.73;2058247;86;28642;-63
2021/12/31 00:24:58;;;;;;;6.12;3.52;;;;;;;11.48;84.05;100212.73;2057980;86;31069;-64
2021/12/31 00:28:01;;;;;;;6.10;4.00;;;;;;;11.49;84.08;100212.67;2059063;86;32950;-63
2021/12/31 00:31:02;;;;;;;7.42;3.62;;;;;;;11.49;84.08;100206.42;2039996;86;30496;-65
2021/12/31 00:34:04;;;;;;;6.58;3.60;;;;;;;11.49;84.06;100202.39;2052133;84;28416;-66
2021/12/31 00:37:06;;;;;;;5.58;3.80;;;;;;;11.48;84.13;100200.20;2036479;86;28613;-65
2021/12/31 00:40:14;;;;;;;6.12;3.33;;;;;;;11.50;84.05;100206.81;2054489;86;30995;-66
2021/12/31 00:43:17;;;;;;;6.87;3.20;;;;;;;11.51;84.05;100215.25;2054805;86;32135;-64
2021/12/31 00:46:19;;;;;;;7.22;4.22;;;;;;;11.51;84.05;100212.08;2054840;86;29330;-66
2021/12/31 00:49:21;;;;;;;6.55;3.37;;;;;;;11.52;84.02;100221.02;2054567;86;27694;-63
2021/12/31 00:52:22;;;;;;;6.22;3.62;;;;;;;11.51;83.95;100220.62;2054721;86;29357;-63
2021/12/31 00:55:24;;;;;;;4.35;3.50;;;;;;;11.52;83.99;100221.02;2059535;86;31303;-64
2021/12/31 00:58:26;;;;;;;5.60;2.95;;;;;;;11.53;84.01;100225.42;2058612;86;32946;-68
2021/12/31 01:01:34;;;;;;;6.28;3.60;;;;;;;11.53;83.98;100220.91;2054919;86;27716;-64
2021/12/31 01:04:35;;;;;;;3.60;3.05;;;;;;;11.53;84.01;100227.63;2065536;86;27696;-63
2021/12/31 01:07:37;;;;;;;7.55;3.62;;;;;;;11.54;83.98;100232.04;2065972;86;28514;-64
2021/12/31 01:10:39;;;;;;;5.62;3.50;;;;;;;11.55;83.97;100227.06;2041942;86;31014;-63
2021/12/31 01:13:53;;;;;;;5.10;3.58;;;;;;;11.54;83.98;100218.62;2064905;86;34254;-64
2021/12/31 01:16:57;;;;;;;6.83;4.10;;;;;;;11.54;83.98;100217.28;2066070;86;29470;-64
2021/12/31 01:19:54;;;;;;;5.80;3.37;;;;;;;11.55;83.95;100214.14;2066359;86;27735;-62
2021/12/31 01:22:56;;;;;;;5.08;3.45;;;;;;;11.53;83.97;100210.67;2065167;86;30056;-63
2021/12/31 01:25:58;;;;;;;4.58;3.45;;;;;;;11.52;83.91;100206.26;2066027;86;31093;-62
2021/12/31 01:29:00;;;;;;;5.50;3.35;;;;;;;11.52;83.92;100211.62;2066054;86;34194;-63
2021/12/31 01:32:03;;;;;;;6.85;3.50;;;;;;;11.52;83.93;100208.45;2066425;86;30458;-65
2021/12/31 01:35:06;;;;;;;4.10;3.50;;;;;;;11.51;83.85;100212.57;2066283;86;27628;-64
2021/12/31 01:38:08;;;;;;;6.72;3.50;;;;;;;11.50;83.94;100226.93;2066334;86;29495;-64
2021/12/31 01:41:10;;;;;;;7.80;3.52;;;;;;;11.51;83.95;100228.17;2065922;86;32366;-63
2021/12/31 01:44:12;;;;;;;6.55;3.27;;;;;;;11.53;83.93;100225.42;2066214;86;33729;-63
2021/12/31 01:47:16;;;;;;;7.05;3.25;;;;;;;11.54;83.92;100228.02;2065994;86;30012;-62
2021/12/31 01:50:18;;;;;;;6.35;3.10;;;;;;;11.55;83.91;100229.75;2066310;86;28355;-64
2021/12/31 01:53:26;;;;;;;7.92;3.58;;;;;;;11.57;83.93;100239.08;2068844;85;28466;-63
2021/12/31 01:56:32;;;;;;;4.15;2.85;;;;;;;11.57;83.83;100242.22;2071443;85;32312;-63
2021/12/31 01:59:37;;;;;;;4.17;3.10;;;;;;;11.57;83.81;100244.44;2071249;85;33590;-63
2021/12/31 02:02:39;;;;;;;;;;;;;;;11.58;83.87;100243.95;2069705;85;31010;-61
2021/12/31 02:05:42;;;;;;;7.25;3.15;;;;;;;11.59;83.80;100242.52;2048321;86;27715;-61
2021/12/31 02:08:44;;;;;;;11.33;3.10;;;;;;;11.58;83.89;100244.84;2059511;86;29534;-61
2021/12/31 02:11:45;;;;;;;5.00;3.40;;;;;;;11.59;83.84;100244.34;2059753;86;32008;-62
2021/12/31 02:14:47;;;;;;;5.67;3.30;;;;;;;11.60;83.85;100250.10;2059774;86;32912;-65
2021/12/31 02:17:49;;;;;;;6.60;3.35;;;;;;;11.59;83.81;100246.53;2059856;86;30085;-63
2021/12/31 02:20:51;;;;;;;4.83;3.00;;;;;;;11.59;83.76;100249.22;2059840;86;27716;-62
2021/12/31 02:23:55;;;;;;;3.52;2.67;;;;;;;11.59;83.84;100243.00;2059819;86;29620;-63
2021/12/31 02:26:58;;;;;;;6.10;3.40;;;;;;;11.61;83.87;100244.64;2060078;86;32318;-62
2021/12/31 02:30:06;;;;;;;4.17;2.90;;;;;;;11.61;83.79;100248.66;2059659;86;33009;-66
2021/12/31 02:33:07;;;;;;;6.90;2.98;;;;;;;11.61;83.79;100243.78;2059068;86;29338;-61
2021/12/31 02:36:10;;;;;;;3.25;2.47;;;;;;;11.61;83.84;100238.42;2055586;86;27699;-61
2021/12/31 02:39:12;;;;;;;4.47;2.90;;;;;;;11.62;83.86;100249.55;2054428;86;29068;-62
2021/12/31 02:42:14;;;;;;;4.53;2.95;;;;;;;11.62;83.85;100241.50;2054001;85;31400;-62
2021/12/31 02:45:16;;;;;;;5.30;3.30;;;;;;;11.62;83.89;100242.84;2053238;86;32958;-62
2021/12/31 02:48:25;;;;;;;5.55;2.83;;;;;;;11.63;83.87;100239.20;2054570;86;29162;-62
2021/12/31 02:51:28;;;;;;;4.70;2.58;;;;;;;11.64;83.80;100241.80;2054644;86;27696;-63
2021/12/31 02:54:31;;;;;;;2.98;2.65;;;;;;;11.67;83.77;100250.14;2059074;86;29545;-62
2021/12/31 02:57:33;;;;;;;5.17;3.10;;;;;;;11.63;83.73;100246.77;2059542;86;32350;-63
2021/12/31 03:00:39;;;;;;;3.92;2.45;;;;;;;11.63;83.65;100245.42;2059503;86;34358;-62
2021/12/31 03:03:42;;;;;;;9.03;3.47;;;;;;;11.64;83.79;100247.65;2059582;86;29598;-62
2021/12/31 03:06:46;;;;;;;3.08;2.47;;;;;;;11.64;83.70;100248.99;2059589;86;27727;-63
2021/12/31 03:09:49;;;;;;;4.70;2.90;;;;;;;11.64;83.78;100243.13;2059803;86;29493;-64
2021/12/31 03:12:51;;;;;;;6.37;2.85;;;;;;;11.66;83.77;100242.58;2059402;86;32287;-62
2021/12/31 03:15:53;;;;;;;5.83;2.58;;;;;;;11.65;83.74;100247.55;2060015;86;32993;-61
2021/12/31 03:18:56;;;;;;;5.47;2.90;;;;;;;11.65;83.86;100243.53;2059478;86;30534;-67
2021/12/31 03:21:58;;;;;;;3.37;2.83;;;;;;;11.65;83.88;100247.55;2059806;86;27676;-61
2021/12/31 03:25:00;;;;;;;3.27;2.60;;;;;;;11.64;83.88;100245.82;2059933;86;29840;-65
2021/12/31 03:28:03;;;;;;;4.10;2.70;;;;;;;11.64;83.91;100250.34;2059431;86;31315;-62
2021/12/31 03:31:05;;;;;;;6.12;2.33;;;;;;;11.63;83.91;100248.11;2059729;86;32951;-65
2021/12/31 03:34:07;;;;;;;4.62;2.42;;;;;;;11.64;83.93;100246.31;2059496;86;30160;-62
2021/12/31 03:37:09;;;;;;;5.05;2.58;;;;;;;11.63;83.96;100244.58;2060002;86;27772;-65
2021/12/31 03:40:12;;;;;;;4.92;2.65;;;;;;;11.62;84.03;100239.67;2059645;86;29925;-62
2021/12/31 03:43:14;;;;;;;7.03;2.85;;;;;;;11.63;84.03;100245.42;2059907;86;31087;-62
2021/12/31 03:46:16;;;;;;;2.92;2.10;;;;;;;11.63;84.05;100244.08;2059961;86;32978;-63
2021/12/31 03:49:18;;;;;;;3.83;2.70;;;;;;;11.64;84.10;100248.99;2060216;86;29698;-61
2021/12/31 03:52:21;;;;;;;6.58;2.52;;;;;;;11.64;84.03;100244.97;2060425;86;28261;-63
2021/12/31 03:55:23;;;;;;;2.65;2.30;;;;;;;11.64;84.02;100245.82;2061492;86;29958;-64
2021/12/31 03:58:25;;;;;;;2.95;2.45;;;;;;;11.63;83.96;100244.08;2061861;86;32343;-62
2021/12/31 04:01:27;;;;;;;3.90;2.35;;;;;;;11.62;83.96;100241.00;2061924;86;32779;-60
2021/12/31 04:04:30;;;;;;;2.25;2.05;;;;;;;11.61;83.87;100239.27;2061459;86;29866;-60
2021/12/31 04:07:31;;;;;;;5.75;2.02;;;;;;;11.61;83.96;100243.30;2061949;85;28135;-61
2021/12/31 04:10:34;;;;;;;4.62;2.35;;;;;;;11.60;83.88;100252.30;2061843;86;29061;-62
2021/12/31 04:13:36;;;;;;;2.92;2.08;;;;;;;11.59;83.93;100257.27;2061884;86;31696;-66
2021/12/31 04:16:38;;;;;;;3.65;1.90;;;;;;;11.59;83.90;100249.22;2061746;85;33392;-69
2021/12/31 04:19:41;;;;;;;3.95;1.70;;;;;;;11.59;83.97;100248.37;2061401;86;30204;-65
2021/12/31 04:22:51;;;;;;;6.35;3.72;;;;;;;11.59;83.97;100243.85;2061903;85;28284;-65
2021/12/31 04:25:47;;;;;;;6.67;1.80;;;;;;;11.59;83.93;100240.32;2061954;86;28566;-66
2021/12/31 04:28:49;;;;;;;1.85;1.35;;;;;;;11.59;83.93;100243.85;2061798;86;30924;-65
2021/12/31 04:31:51;;;;;;;6.45;1.77;;;;;;;11.60;83.97;100247.42;2061670;86;33825;-61
2021/12/31 04:34:52;;;;;;;3.52;1.70;;;;;;;11.59;83.90;100238.98;2061746;85;29246;-62
2021/12/31 04:37:54;;;;;;;2.20;1.70;;;;;;;11.60;83.88;100249.61;2061522;85;27629;-65
2021/12/31 04:40:57;;;;;;;2.17;1.47;;;;;;;11.61;83.92;100244.64;2061468;85;29933;-67
2021/12/31 04:43:59;;;;;;;2.80;1.65;;;;;;;11.61;83.89;100247.81;2061387;86;31905;-63
2021/12/31 04:47:01;;;;;;;8.28;1.62;;;;;;;11.62;83.86;100252.23;2061805;86;32195;-63
2021/12/31 04:50:04;;;;;;;2.98;1.50;;;;;;;11.61;83.88;100253.18;2061738;86;29896;-63
2021/12/31 04:53:07;;;;;;;3.25;2.50;;;;;;;11.60;83.81;100249.61;2056353;86;27611;-67
2021/12/31 04:56:08;;;;;;;2.00;1.52;;;;;;;11.61;83.78;100251.84;2048641;86;29921;-63
2021/12/31 04:59:11;;;;;;;3.40;1.47;;;;;;;11.60;83.81;100259.00;2050943;86;31136;-67
2021/12/31 05:02:13;;;;;;;3.52;1.72;;;;;;;11.60;83.83;100262.17;2053953;86;35099;-67
2021/12/31 05:05:15;;;;;;;1.62;1.50;;;;;;;11.60;83.86;100267.05;2051010;84;29557;-66
2021/12/31 05:08:19;;;;;;;2.50;1.47;;;;;;;11.61;83.83;100264.77;2051725;86;27669;-61
2021/12/31 05:11:20;;;;;;;3.25;1.30;;;;;;;11.62;83.80;100261.13;2051582;86;28632;-63
2021/12/31 05:14:23;;;;;;;3.92;1.40;;;;;;;11.62;83.75;100265.16;2051861;86;32038;-67
2021/12/31 05:17:25;;;;;;;3.60;1.60;;;;;;;11.62;83.75;100265.64;2051231;86;33389;-64
2021/12/31 05:20:27;;;;;;;6.60;1.65;;;;;;;11.63;83.75;100258.84;2051555;86;30458;-65
2021/12/31 05:23:29;;;;;;;2.95;1.67;;;;;;;11.63;83.71;100257.98;2051613;86;28329;-69
2021/12/31 05:26:37;;;;;;;3.02;1.40;;;;;;;11.63;83.80;100250.79;2051364;86;29895;-63
2021/12/31 05:29:44;;;;;;;2.58;1.77;;;;;;;11.64;83.80;100248.50;2051481;86;31419;-68
2021/12/31 05:32:47;;;;;;;3.83;1.92;;;;;;;11.66;83.77;100246.61;2051465;86;32990;-63
2021/12/31 05:35:49;;;;;;;4.95;1.75;;;;;;;11.67;83.78;100244.31;2051893;86;30600;-68
2021/12/31 05:38:51;;;;;;;2.92;1.65;;;;;;;11.67;83.73;100242.97;2051610;86;27669;-66
2021/12/31 05:41:54;;;;;;;4.42;1.52;;;;;;;11.68;83.67;100254.09;2051631;86;28840;-64
2021/12/31 05:44:56;;;;;;;1.55;1.37;;;;;;;11.69;83.67;100256.29;2051179;86;32045;-63
2021/12/31 05:47:58;;;;;;;4.00;1.52;;;;;;;11.69;83.68;100255.83;2047297;86;33826;-67
2021/12/31 05:51:00;;;;;;;2.15;1.40;;;;;;;11.70;83.55;100266.08;2047383;86;29888;-62
2021/12/31 05:54:02;;;;;;;2.10;1.60;;;;;;;11.68;83.60;100267.52;2054653;86;27768;-66
2021/12/31 05:57:04;;;;;;;3.33;1.77;;;;;;;11.70;83.60;100260.71;2056292;86;29892;-63
2021/12/31 06:00:06;;;;;;;3.37;1.47;;;;;;;11.70;83.59;100265.62;2056765;86;31840;-63
2021/12/31 06:03:08;;;;;;;2.60;1.45;;;;;;;11.72;83.58;100266.02;2056995;86;32954;-62
2021/12/31 06:06:10;;;;;;;4.40;1.75;;;;;;;11.72;83.61;100270.89;2065310;86;29420;-67
2021/12/31 06:09:13;;;;;;;4.30;1.45;;;;;;;11.74;83.60;100259.59;2065721;86;27693;-63
2021/12/31 06:12:14;;;;;;;6.30;2.58;;;;;;;11.75;83.58;100264.50;2065283;86;28699;-68
2021/12/31 06:15:18;;;;;;;3.22;1.40;;;;;;;11.76;83.55;100265.75;2065502;86;31041;-63
2021/12/31 06:18:20;;;;;;;5.25;1.72;;;;;;;11.76;83.48;100269.78;2065539;86;34307;-62
2021/12/31 06:21:22;;;;;;;1.82;1.50;;;;;;;11.78;83.51;100273.25;2065379;86;30530;-67
2021/12/31 06:24:24;;;;;;;2.10;1.75;;;;;;;11.78;83.51;100270.56;2065433;86;28232;-62
2021/12/31 06:27:26;;;;;;;4.60;2.00;;;;;;;11.80;83.52;100275.83;2065553;86;29934;-67
2021/12/31 06:30:28;;;;;;;4.25;1.77;;;;;;;11.80;83.47;100274.49;2065321;86;32314;-64
2021/12/31 06:33:30;;;;;;;3.67;2.00;;;;;;;11.80;83.43;100279.86;2066310;86;33303;-65
2021/12/31 06:36:32;;;;;;;6.72;1.92;;;;;;;11.81;83.37;100275.77;2066260;86;30448;-62
2021/12/31 06:39:35;;;;;;;2.98;2.27;;;;;;;11.80;83.29;100286.57;2066190;86;27730;-67
2021/12/31 06:42:38;;;;;;;3.33;1.82;;;;;;;11.78;83.17;100291.15;2067293;86;29070;-67
2021/12/31 06:45:40;;;;;;;5.10;2.20;;;;;;;11.75;83.16;100296.22;2066930;86;32236;-62
2021/12/31 06:48:42;;;;;;;4.12;2.10;;;;;;;11.73;83.16;100287.38;2066885;86;33837;-62
2021/12/31 06:51:46;;;;;;;2.65;1.77;;;;;;;11.71;83.08;100281.23;2054515;86;30700;-61
2021/12/31 06:54:48;;;;;;;4.58;2.22;;;;;;;11.70;83.14;100288.89;2039784;86;27708;-63
2021/12/31 06:57:50;;;;;;;4.28;2.15;;;;;;;11.68;83.03;100294.35;2059610;86;29538;-63
2021/12/31 07:00:51;;;;;;;4.65;2.40;;;;;;;11.68;83.08;100302.86;2057830;86;32233;-62
2021/12/31 07:03:53;;;;;;;7.65;2.27;;;;;;;11.68;83.09;100296.16;2057859;86;34338;-61
2021/12/31 07:06:55;;;;;;;5.47;2.20;;;;;;;11.68;83.09;100297.49;2050817;86;29777;-61
2021/12/31 07:09:57;;;;;;;3.67;2.12;;;;;;;11.72;83.10;100306.27;2051225;86;27717;-62
2021/12/31 07:13:01;;;;;;;3.58;2.35;;;;;;;11.72;83.04;100303.09;2051642;86;29066;-63
2021/12/31 07:16:05;;;;;;;4.57;2.30;;;;;;;11.74;82.95;100303.88;2051746;86;31009;-62
2021/12/31 07:19:07;;;;;;;3.92;2.30;;;;;;;11.77;82.93;100312.23;2051936;86;33070;-61
2021/12/31 07:22:10;;;;;;;4.55;2.58;;;;;;;11.78;82.80;100310.83;2051775;86;30491;-62
2021/12/31 07:25:12;;;;;;;4.65;2.42;;;;;;;11.79;82.78;100311.67;2051560;86;27689;-62
2021/12/31 07:28:16;;;;;;;2.47;2.02;;;;;;;11.81;82.72;100313.80;2053344;86;30009;-63
2021/12/31 07:31:19;;;;;;;4.03;2.00;;;;;;;11.82;82.66;100316.88;2056912;86;31041;-62
2021/12/31 07:34:21;;;;;;;2.80;1.77;;;;;;;11.84;82.60;100321.69;2056414;86;34243;-63
2021/12/31 07:37:23;;;;;;;4.78;2.10;;;;;;;11.85;82.52;100327.45;2056495;86;30544;-64
2021/12/31 07:40:37;;;;;;;3.55;1.90;;;;;;;11.86;82.42;100328.70;2056476;86;27711;-61
2021/12/31 07:43:30;;;;;;;1.98;1.37;;;;;;;11.88;82.33;100327.30;2056766;86;32985;-61
2021/12/31 07:46:32;;;;;;;3.17;1.72;;;;;;;11.89;82.29;100331.72;2056724;86;31037;-62
2021/12/31 07:49:34;;;;;;;4.58;1.98;;;;;;;11.90;82.18;100330.77;2056515;86;33836;-62
2021/12/31 07:52:36;;;;;;;3.17;1.52;;;;;;;11.93;82.10;100335.94;2056683;86;30552;-61
2021/12/31 07:55:39;;;;;;;2.20;1.40;;;;;;;11.96;81.97;100347.01;2056566;86;27691;-62
2021/12/31 07:58:41;;;;;;;1.42;1.30;;;;;;;12.00;81.93;100355.30;2056449;86;29546;-65
2021/12/31 08:01:43;;;;;;;2.58;1.42;;;;;;;12.06;81.91;100356.80;2056444;86;32334;-63
2021/12/31 08:04:45;;;;;;;2.52;1.27;;;;;;;12.12;81.86;100357.78;2033570;86;34136;-62
2021/12/31 08:07:47;;;;;;;1.90;1.35;;;;;;;12.20;81.71;100356.02;2065413;86;31591;-62
2021/12/31 08:10:49;;;;;;;3.33;1.37;;;;;;;12.22;81.63;100359.03;2066066;86;27715;-62
2021/12/31 08:13:51;;;;;;;5.40;1.45;;;;;;;12.25;81.48;100357.48;2065815;86;28760;-64
2021/12/31 08:16:53;;;;;;;1.95;1.07;;;;;;;12.27;81.25;100346.19;2065667;86;30790;-61
2021/12/31 08:19:56;;;;;;;1.65;1.10;;;;;;;12.31;81.24;100345.56;2065265;86;32853;-65
2021/12/31 08:23:10;;;;;;;3.20;1.10;;;;;;;12.38;81.19;100332.64;2065645;86;29528;-64
2021/12/31 08:26:12;;;;;;;2.08;1.07;;;;;;;12.43;81.12;100323.83;2065431;86;27826;-62
2021/12/31 08:29:15;;;;;;;2.12;1.35;;;;;;;12.51;81.04;100331.45;2065937;86;27722;-59
2021/12/31 08:32:18;;;;;;;1.72;1.20;;;;;;;12.58;80.91;100332.34;2067387;86;31833;-66
2021/12/31 08:35:20;;;;;;;2.35;1.35;;;;;;;12.66;80.81;100332.39;2066785;86;34207;-67
2021/12/31 08:38:23;;;;;;;1.05;0.88;;;;;;;12.76;80.62;100337.61;2063876;86;29302;-67
2021/12/31 08:41:25;;;;;;;1.80;1.20;;;;;;;12.85;80.47;100342.47;2051362;86;27730;-67
2021/12/31 08:44:27;;;;;;;3.05;1.20;;;;;;;12.97;80.29;100332.83;2066560;86;29501;-68
2021/12/31 08:47:29;;;;;;;1.87;1.25;;;;;;;13.09;80.15;100332.55;2059508;86;31078;-68
2021/12/31 08:50:33;;;;;;;2.27;1.30;;;;;;;13.25;80.03;100335.66;2090182;84;32935;-65
2021/12/31 08:53:35;;;;;;;1.87;1.40;;;;;;;13.38;79.76;100338.87;2065750;86;30399;-66
2021/12/31 08:56:36;;;;;;;1.35;1.00;;;;;;;13.47;79.16;100333.94;2060379;86;27737;-66
2021/12/31 08:59:38;;;;;;;1.77;1.10;;;;;;;13.52;79.26;100328.65;2057057;86;28800;-64
2021/12/31 09:02:40;;;;;;;2.35;1.70;;;;;;;13.59;79.08;100328.25;2056010;86;30652;-65
2021/12/31 09:05:42;;;;;;;1.82;1.32;;;;;;;13.60;78.83;100328.64;2062304;86;34206;-62
2021/12/31 09:08:46;;;;;;;3.52;1.20;;;;;;;13.62;78.52;100328.06;2058683;86;29455;-68
2021/12/31 09:11:47;;;;;;;2.58;1.05;;;;;;;13.65;78.43;100330.57;2054063;86;27717;-65
2021/12/31 09:14:49;;;;;;;1.90;1.17;;;;;;;13.68;78.32;100325.85;2051344;86;28692;-68
2021/12/31 09:17:51;;;;;;;2.08;0.98;;;;;;;13.72;78.14;100325.67;2051062;86;31194;-65
2021/12/31 09:20:53;;;;;;;5.20;3.72;;;;;;;13.73;77.79;100319.33;2056950;86;32940;-65
2021/12/31 09:23:54;;;;;;;2.75;1.80;;;;;;;13.74;77.67;100327.30;2053240;85;29369;-65
2021/12/31 09:26:56;;;;;;;2.80;1.90;;;;;;;13.77;77.53;100322.22;2050913;86;27693;-65
2021/12/31 09:29:59;;;;;;;2.10;1.65;;;;;;;13.78;77.46;100325.30;2055482;86;28856;-67
2021/12/31 09:33:01;;;;;;;2.22;1.50;;;;;;;13.79;77.34;100315.77;2057722;86;31137;-70
2021/12/31 09:36:03;;;;;;;1.95;1.60;;;;;;;13.80;77.22;100323.38;2058688;86;33819;-67
2021/12/31 09:39:05;;;;;;;2.27;1.35;;;;;;;13.82;77.12;100323.66;2058361;86;29344;-70
2021/12/31 09:42:08;;;;;;;4.08;1.40;;;;;;;13.87;77.00;100319.81;2058695;86;27607;-65
2021/12/31 09:45:14;;;;;;;2.47;1.60;;;;;;;13.88;77.04;100318.36;2058482;86;28657;-65
2021/12/31 09:48:19;;;;;;;4.90;1.55;;;;;;;13.92;76.74;100317.20;2057493;86;31058;-65
2021/12/31 09:51:22;;;;;;;5.33;1.60;;;;;;;13.97;76.70;100320.48;2058349;86;33058;-66
2021/12/31 09:54:23;;;;;;;2.72;1.50;;;;;;;14.02;76.50;100315.26;2057006;86;29329;-65
2021/12/31 09:57:25;;;;;;;1.90;1.50;;;;;;;14.09;76.20;100315.27;2051361;86;27747;-69
2021/12/31 10:00:27;;;;;;;2.65;1.80;;;;;;;14.18;76.32;100317.84;2049993;86;28624;-70
2021/12/31 10:03:32;;;;;;;3.40;1.37;;;;;;;14.33;76.32;100306.07;2050990;86;31817;-70
2021/12/31 10:06:34;;;;;;;1.90;1.50;;;;;;;14.47;76.08;100309.69;2053892;86;32962;-69
2021/12/31 10:09:40;;;;;;;3.92;1.77;;;;;;;14.59;75.71;100308.39;2058610;86;29364;-67
2021/12/31 10:12:53;;;;;;;2.02;1.40;;;;;;;14.67;75.44;100312.39;2058657;86;28210;-66
2021/12/31 10:15:56;;;;;;;2.15;1.50;;;;;;;14.69;75.01;100308.69;2058522;86;28692;-65
2021/12/31 10:19:19;;;;;;;3.47;1.37;;;;;;;14.74;74.93;100305.67;2058245;86;31045;-66
2021/12/31 10:22:21;;;;;;;4.17;3.22;;;;;;;14.74;74.93;100305.67;2058419;86;32425;-67
2021/12/31 10:25:26;;;;;;;3.05;1.92;;;;;;;14.80;74.64;100307.09;2058185;86;30117;-65
2021/12/31 10:28:28;;;;;;;5.50;1.85;;;;;;;14.82;74.61;100297.91;2056623;86;27702;-67
2021/12/31 10:31:30;;;;;;;1.87;1.35;;;;;;;14.84;74.23;100297.83;2055978;86;28708;-65
2021/12/31 10:34:37;;;;;;;2.02;1.32;;;;;;;14.85;74.02;100295.02;2056724;86;31034;-65
2021/12/31 10:37:52;;;;;;;6.10;1.40;;;;;;;14.86;73.95;100295.39;2057673;86;33938;-66
2021/12/31 10:40:57;;;;;;;3.42;1.30;;;;;;;14.87;73.71;100297.63;2024668;87;29357;-71
2021/12/31 10:44:00;;;;;;;1.65;1.40;;;;;;;14.87;73.74;100301.67;2004217;86;27711;-66
2021/12/31 10:47:12;;;;;;;1.50;1.40;;;;;;;14.87;73.36;100292.23;2050771;86;28663;-67
2021/12/31 10:50:18;;;;;;;3.27;1.50;;;;;;;14.87;73.36;100292.23;2049549;86;33358;-65
2021/12/31 10:53:34;;;;;;;2.10;1.52;;;;;;;14.89;73.30;100291.64;2056544;86;32987;-66
2021/12/31 10:56:45;;;;;;;2.40;1.52;;;;;;;14.94;73.11;100288.13;2025081;87;29345;-65
2021/12/31 10:59:43;;;;;;;1.98;1.50;;;;;;;14.99;72.95;100288.69;2025105;86;27701;-66
2021/12/31 11:02:46;;;;;;;2.83;1.70;;;;;;;15.02;72.95;100281.73;2023730;87;28036;-67
2021/12/31 11:05:48;;;;;;;3.62;1.40;;;;;;;15.02;72.63;100269.60;2052387;86;32051;-68
2021/12/31 11:08:51;;;;;;;1.40;1.17;;;;;;;15.04;72.56;100276.23;2064923;86;32430;-66
2021/12/31 11:11:54;;;;;;;2.62;1.50;;;;;;;15.08;72.54;100280.92;2062091;86;29442;-70
2021/12/31 11:14:57;;;;;;;3.30;1.75;;;;;;;15.11;72.30;100272.62;2060440;86;28303;-68
2021/12/31 11:17:59;;;;;;;2.55;1.57;;;;;;;15.14;72.19;100285.91;2059705;86;29080;-68
2021/12/31 11:21:03;;;;;;;1.90;1.42;;;;;;;15.18;72.31;100277.98;2060419;86;31077;-66
2021/12/31 11:24:33;;;;;;;3.67;1.67;;;;;;;15.23;72.14;100269.55;2060676;86;33016;-66
2021/12/31 11:27:37;;;;;;;2.65;2.12;;;;;;;15.29;72.06;100265.94;2066313;86;29336;-71
2021/12/31 11:30:48;;;;;;;2.40;1.40;;;;;;;15.35;71.83;100260.59;2067684;85;27660;-69
2021/12/31 11:34:05;;;;;;;3.72;1.55;;;;;;;15.39;71.46;100270.21;2039689;86;28798;-69
2021/12/31 11:37:05;;;;;;;3.52;1.27;;;;;;;15.38;71.58;100256.33;1996036;89;31068;-68
2021/12/31 11:40:28;;;;;;;2.12;1.72;;;;;;;15.36;71.09;100253.38;1997004;89;32524;-69
2021/12/31 11:43:37;;;;;;;3.90;1.90;;;;;;;15.29;71.21;100256.50;2011377;87;29354;-68
2021/12/31 11:46:41;;;;;;;5.50;2.50;;;;;;;15.19;70.97;100252.73;2027864;87;27738;-68
2021/12/31 11:49:45;;;;;;;3.83;2.37;;;;;;;15.13;71.10;100247.74;2029734;87;28701;-70
2021/12/31 11:53:02;;;;;;;3.62;1.65;;;;;;;15.04;70.79;100242.03;2023081;87;31663;-69
2021/12/31 11:56:04;;;;;;;4.10;1.90;;;;;;;14.96;70.90;100232.75;2019310;87;33133;-68
2021/12/31 11:59:19;;;;;;;4.33;2.35;;;;;;;14.92;70.90;100237.46;2017161;88;30522;-69
2021/12/31 12:02:31;;;;;;;4.45;2.20;;;;;;;14.90;70.86;100236.70;2017816;88;27788;-70
2021/12/31 12:05:41;;;;;;;5.62;2.00;;;;;;;14.87;70.74;100231.55;1996199;89;28757;-67
2021/12/31 12:08:52;;;;;;;3.75;1.32;;;;;;;14.84;70.11;100226.36;2006240;88;31984;-68
2021/12/31 12:12:10;;;;;;;3.02;1.90;;;;;;;14.83;70.57;100234.91;2014919;88;32970;-67
2021/12/31 12:15:32;;;;;;;2.33;1.65;;;;;;;14.84;70.62;100230.41;2019002;88;29444;-68
2021/12/31 12:18:54;;;;;;;3.10;1.40;;;;;;;14.86;70.29;100232.52;2057009;86;27800;-69
2021/12/31 12:21:56;;;;;;;3.27;1.50;;;;;;;14.85;70.30;100234.33;2012544;87;28672;-67
2021/12/31 12:25:01;;;;;;;4.50;1.70;;;;;;;14.82;70.28;100228.29;2040422;87;31176;-68
2021/12/31 12:28:07;;;;;;;4.08;1.82;;;;;;;14.80;70.19;100219.44;2053885;84;33116;-68
2021/12/31 12:31:16;;;;;;;2.22;1.50;;;;;;;14.77;70.22;100221.88;2034018;86;29361;-68
2021/12/31 12:34:30;;;;;;;2.20;1.40;;;;;;;14.74;70.02;100203.20;2058992;85;28118;-72
2021/12/31 12:37:32;;;;;;;3.08;1.50;;;;;;;14.73;70.14;100206.86;2025173;85;28805;-73
2021/12/31 12:40:54;;;;;;;2.67;1.32;;;;;;;14.70;70.14;100209.77;2026850;87;31832;-70
2021/12/31 12:43:57;;;;;;;1.62;1.50;;;;;;;14.66;69.82;100201.00;2034205;87;33748;-73
2021/12/31 12:47:00;;;;;;;4.70;2.00;;;;;;;14.64;69.86;100211.52;2032050;87;29343;-71
2021/12/31 12:50:09;;;;;;;5.20;2.40;;;;;;;14.59;69.59;100201.02;2031844;85;27734;-68
2021/12/31 12:53:18;;;;;;;3.45;2.60;;;;;;;14.54;69.82;100202.69;2062349;86;28660;-71
2021/12/31 12:56:21;;;;;;;3.25;2.00;;;;;;;14.51;69.86;100196.66;2017654;86;31011;-73
2021/12/31 12:59:23;;;;;;;2.47;1.92;;;;;;;14.46;69.85;100194.28;2019005;86;32957;-72
2021/12/31 13:02:41;;;;;;;2.65;2.08;;;;;;;14.42;69.84;100189.55;2034267;86;29433;-67
2021/12/31 13:05:43;;;;;;;4.67;2.27;;;;;;;14.40;69.76;100200.92;2064443;85;27744;-72
2021/12/31 13:08:45;;;;;;;3.12;1.85;;;;;;;14.39;69.96;100192.95;2061829;86;28686;-71
2021/12/31 13:11:51;;;;;;;4.05;2.22;;;;;;;14.39;69.79;100196.99;2062230;86;31085;-70
2021/12/31 13:14:55;;;;;;;3.33;2.00;;;;;;;14.37;69.87;100198.45;2038730;86;33769;-72
2021/12/31 13:18:03;;;;;;;3.10;2.08;;;;;;;14.36;69.88;100194.50;2063137;84;29350;-71
2021/12/31 13:21:16;;;;;;;6.33;1.92;;;;;;;14.39;69.79;100196.99;2063250;86;27687;-70
2021/12/31 13:24:20;;;;;;;4.17;1.82;;;;;;;14.39;69.71;100188.91;2062167;86;29557;-70
2021/12/31 13:27:22;;;;;;;3.30;2.00;;;;;;;14.39;69.81;100184.40;2037922;87;31023;-74
2021/12/31 13:30:24;;;;;;;6.47;1.77;;;;;;;14.42;69.74;100189.55;2033438;87;32992;-66
2021/12/31 13:33:31;;;;;;;3.40;2.00;;;;;;;14.42;69.65;100184.16;2033820;86;29413;-72
2021/12/31 13:36:39;;;;;;;3.52;2.10;;;;;;;14.42;69.46;100180.63;2033805;86;27773;-68
2021/12/31 13:39:40;;;;;;;3.10;2.10;;;;;;;14.41;69.46;100181.09;2016352;87;29693;-69
2021/12/31 13:42:45;;;;;;;5.40;2.50;;;;;;;14.40;69.24;100174.47;2033668;86;31888;-70
2021/12/31 13:45:47;;;;;;;5.12;3.15;;;;;;;14.39;69.13;100175.44;2033710;86;34068;-66
2021/12/31 13:48:50;;;;;;;7.15;3.45;;;;;;;14.36;69.05;100178.33;2033648;87;28925;-67
2021/12/31 13:51:52;;;;;;;5.72;5.15;;;;;;;14.33;69.10;100171.80;2015353;87;28412;-77
2021/12/31 13:55:05;;;;;;;39.50;32.30;;;;;;;14.27;68.92;100167.69;2030009;86;28691;-76
2021/12/31 13:58:07;;;;;;;6.20;3.42;;;;;;;14.22;69.05;100169.34;2000082;87;31204;-72
2021/12/31 14:01:12;;;;;;;4.55;2.10;;;;;;;14.15;68.94;100168.52;2030497;87;33061;-72
2021/12/31 14:04:15;;;;;;;;;;;;;;;14.10;68.91;100178.26;2032964;87;29363;-69
2021/12/31 14:07:19;;;;;;;4.15;2.12;;;;;;;14.06;68.92;100176.27;1999257;87;27761;-72
2021/12/31 14:10:34;;;;;;;3.15;2.33;;;;;;;14.04;68.93;100180.00;2020714;87;28677;-70
2021/12/31 14:13:42;;;;;;;3.10;2.37;;;;;;;14.01;68.84;100182.89;2025579;87;32045;-69
2021/12/31 14:16:44;;;;;;;4.60;2.20;;;;;;;13.97;68.93;100177.73;2023709;87;33011;-69